createdAt,value
2022-08-25T00:01:43.035Z,98590.72
2022-08-25T00:04:53.670Z,98591.63
2022-08-25T00:07:58.999Z,98574.09
2022-08-25T00:11:03.709Z,98587.03
2022-08-25T00:14:13.480Z,98591.47
2022-08-25T00:17:17.350Z,98581.16
2022-08-25T00:20:21.211Z,98580.28
2022-08-25T00:23:24.933Z,98581.28
2022-08-25T00:26:28.352Z,98578.53
2022-08-25T00:29:32.695Z,98580.78
2022-08-25T00:32:35.412Z,98585.50
2022-08-25T00:35:41.186Z,98580.16
2022-08-25T00:38:46.771Z,98577.75
2022-08-25T00:41:52.612Z,98577.53
2022-08-25T00:44:57.756Z,98572.56
2022-08-25T00:48:01.701Z,98574.91
2022-08-25T00:51:05.722Z,98575.91
2022-08-25T00:54:26.259Z,98582.69
2022-08-25T00:57:46.115Z,98583.69
2022-08-25T01:00:53.045Z,98562.00
2022-08-25T01:03:56.751Z,98583.37
2022-08-25T01:07:01.115Z,98586.22
2022-08-25T01:10:07.889Z,98589.06
2022-08-25T01:13:18.671Z,98580.03
2022-08-25T01:16:22.343Z,98584.69
2022-08-25T01:19:29.028Z,98586.69
2022-08-25T01:22:32.403Z,98579.50
2022-08-25T01:25:49.168Z,98579.50
2022-08-25T01:29:11.615Z,98583.19
2022-08-25T01:32:15.153Z,98581.47
2022-08-25T01:35:19.145Z,98578.84
2022-08-25T01:38:23.036Z,98576.34
2022-08-25T01:41:31.985Z,98569.91
2022-08-25T01:44:38.958Z,98561.63
2022-08-25T01:47:41.737Z,98564.47
2022-08-25T01:50:46.949Z,98563.72
2022-08-25T01:53:51.226Z,98562.06
2022-08-25T01:56:55.754Z,98570.50
2022-08-25T01:59:59.076Z,98569.38
2022-08-25T02:03:02.796Z,98561.69
2022-08-25T02:06:14.013Z,98556.56
2022-08-25T02:09:18.364Z,98571.09
2022-08-25T02:12:21.883Z,98566.72
2022-08-25T02:15:24.705Z,98571.41
2022-08-25T02:18:29.315Z,98562.59
2022-08-25T02:21:33.765Z,98559.97
2022-08-25T02:24:37.523Z,98560.09
2022-08-25T02:27:43.548Z,98564.94
2022-08-25T02:30:49.892Z,98565.91
2022-08-25T02:33:53.886Z,98562.53
2022-08-25T02:36:57.881Z,98564.41
2022-08-25T02:40:01.037Z,98562.44
2022-08-25T02:43:05.821Z,98556.09
2022-08-25T02:46:11.444Z,98563.53
2022-08-25T02:49:16.210Z,98558.19
2022-08-25T02:52:19.146Z,98563.53
2022-08-25T02:55:24.476Z,98545.78
2022-08-25T02:58:29.121Z,98548.16
2022-08-25T03:01:32.828Z,98558.19
2022-08-25T03:04:36.799Z,98553.50
2022-08-25T03:07:40.865Z,98547.19
2022-08-25T03:10:46.189Z,98529.75
2022-08-25T03:13:51.623Z,98551.91
2022-08-25T03:16:54.883Z,98541.91
2022-08-25T03:19:58.519Z,98543.88
2022-08-25T03:23:04.960Z,98549.31
2022-08-25T03:26:27.684Z,98503.19
2022-08-25T03:29:33.855Z,98549.75
2022-08-25T03:32:38.622Z,98542.69
2022-08-25T03:35:41.527Z,98539.53
2022-08-25T03:38:44.983Z,98552.41
2022-08-25T03:41:47.968Z,98549.81
2022-08-25T03:44:50.832Z,98553.44
2022-08-25T03:47:54.215Z,98552.66
2022-08-25T03:50:57.945Z,98546.47
2022-08-25T03:54:01.447Z,98535.72
2022-08-25T03:57:06.478Z,98546.50
2022-08-25T04:00:12.726Z,98556.19
2022-08-25T04:03:18.034Z,98552.59
2022-08-25T04:06:23.173Z,98546.16
2022-08-25T04:09:26.929Z,98547.91
2022-08-25T04:12:33.831Z,98553.00
2022-08-25T04:15:37.578Z,98544.94
2022-08-25T04:18:44.883Z,98554.00
2022-08-25T04:21:49.590Z,98550.72
2022-08-25T04:24:53.187Z,98554.84
2022-08-25T04:27:56.158Z,98554.97
2022-08-25T04:31:00.007Z,98555.81
2022-08-25T04:34:05.310Z,98557.81
2022-08-25T04:37:29.734Z,98559.19
2022-08-25T04:40:34.089Z,98563.56
2022-08-25T04:43:39.060Z,98557.88
2022-08-25T04:46:42.724Z,98564.06
2022-08-25T04:49:45.385Z,98554.06
2022-08-25T04:52:50.957Z,98554.34
2022-08-25T04:55:54.859Z,98557.06
2022-08-25T04:59:04.224Z,98555.00
2022-08-25T05:02:07.338Z,98548.31
2022-08-25T05:05:10.865Z,98549.97
2022-08-25T05:08:15.616Z,98529.72
2022-08-25T05:11:20.936Z,98554.59
2022-08-25T05:14:29.866Z,98548.56
2022-08-25T05:17:33.909Z,98548.09
2022-08-25T05:20:37.855Z,98544.13
2022-08-25T05:23:41.364Z,98537.72
2022-08-25T05:26:45.323Z,98538.09
2022-08-25T05:29:49.149Z,98539.38
2022-08-25T05:32:53.142Z,98537.94
2022-08-25T05:35:56.841Z,98544.78
2022-08-25T05:39:00.047Z,98546.16
2022-08-25T05:42:04.188Z,98552.00
2022-08-25T05:45:08.832Z,98550.53
2022-08-25T05:48:14.510Z,98553.03
2022-08-25T05:51:18.668Z,98555.25
2022-08-25T05:54:21.932Z,98552.06
2022-08-25T05:57:24.943Z,98559.75
2022-08-25T06:00:29.794Z,98567.13
2022-08-25T06:03:32.897Z,98565.63
2022-08-25T06:06:36.517Z,98559.66
2022-08-25T06:09:43.024Z,98561.53
2022-08-25T06:12:47.513Z,98559.31
2022-08-25T06:15:51.480Z,98565.50
2022-08-25T06:18:57.079Z,98560.78
2022-08-25T06:22:01.001Z,98559.41
2022-08-25T06:25:09.812Z,98562.47
2022-08-25T06:28:13.718Z,98569.78
2022-08-25T06:31:17.547Z,98564.59
2022-08-25T06:34:24.064Z,98566.41
2022-08-25T06:37:27.219Z,98566.09
2022-08-25T06:40:31.363Z,98570.06
2022-08-25T06:43:36.234Z,98570.75
2022-08-25T06:46:40.513Z,98581.50
2022-08-25T06:49:44.301Z,98551.66
2022-08-25T06:52:47.483Z,98569.50
2022-08-25T06:55:58.093Z,98583.22
2022-08-25T06:59:03.780Z,98583.75
2022-08-25T07:02:08.098Z,98584.25
2022-08-25T07:05:17.173Z,98581.41
2022-08-25T07:08:33.755Z,98585.53
2022-08-25T07:11:39.318Z,98583.97
2022-08-25T07:14:58.101Z,98588.97
2022-08-25T07:18:08.487Z,98589.72
2022-08-25T07:21:13.316Z,98582.09
2022-08-25T07:24:18.677Z,98578.81
2022-08-25T07:27:22.652Z,98575.37
2022-08-25T07:30:29.503Z,98584.91
2022-08-25T07:33:34.003Z,98574.50
2022-08-25T07:36:38.212Z,98585.91
2022-08-25T07:39:44.470Z,98579.34
2022-08-25T07:42:53.680Z,98580.69
2022-08-25T07:45:57.773Z,98591.31
2022-08-25T07:49:02.203Z,98583.53
2022-08-25T07:52:07.005Z,98582.28
2022-08-25T07:55:11.312Z,98579.84
2022-08-25T07:58:15.358Z,98582.94
2022-08-25T08:01:22.319Z,98584.19
2022-08-25T08:04:28.471Z,98588.38
2022-08-25T08:07:43.101Z,98582.34
2022-08-25T08:11:04.057Z,98579.41
2022-08-25T08:14:08.591Z,98582.13
2022-08-25T08:17:13.140Z,98582.72
2022-08-25T08:20:17.104Z,98582.19
2022-08-25T08:23:28.049Z,98582.44
2022-08-25T08:26:55.196Z,98580.69
2022-08-25T08:29:56.553Z,98573.09
2022-08-25T08:33:09.639Z,98589.47
2022-08-25T08:36:14.147Z,98582.09
2022-08-25T08:39:18.894Z,98588.28
2022-08-25T08:42:49.337Z,98578.03
2022-08-25T08:45:53.959Z,98581.34
2022-08-25T08:49:03.550Z,98572.91
2022-08-25T08:52:20.703Z,98574.28
2022-08-25T08:55:30.649Z,98569.06
2022-08-25T08:58:46.645Z,98573.06
2022-08-25T09:02:01.967Z,98573.06
2022-08-25T09:05:11.227Z,98578.41
2022-08-25T09:08:20.498Z,98576.31
2022-08-25T09:11:33.638Z,98576.53
2022-08-25T09:14:56.571Z,98578.03
2022-08-25T09:18:03.330Z,98576.09
2022-08-25T09:21:17.640Z,98572.22
2022-08-25T09:24:41.865Z,98569.66
2022-08-25T09:28:24.225Z,98574.59
2022-08-25T09:31:32.098Z,98563.06
2022-08-25T09:34:36.745Z,98559.47
2022-08-25T09:37:39.678Z,98556.06
2022-08-25T09:40:46.027Z,98553.03
2022-08-25T09:43:55.932Z,98547.41
2022-08-25T09:47:04.315Z,98542.50
2022-08-25T09:50:18.607Z,98497.56
2022-08-25T09:53:23.047Z,98533.78
2022-08-25T09:56:29.053Z,98536.16
2022-08-25T09:59:37.694Z,98532.69
2022-08-25T10:02:43.623Z,98520.25
2022-08-25T10:05:59.497Z,98520.53
2022-08-25T10:09:08.295Z,98513.22
2022-08-25T10:12:42.732Z,98514.06
2022-08-25T10:15:48.551Z,98496.44
2022-08-25T10:19:06.851Z,98503.53
2022-08-25T10:22:22.058Z,98497.19
2022-08-25T10:25:29.088Z,98502.66
2022-08-25T10:28:50.045Z,98495.69
2022-08-25T10:32:02.859Z,98504.06
2022-08-25T10:35:31.838Z,98487.44
2022-08-25T10:38:48.349Z,98485.97
2022-08-25T10:41:53.323Z,98480.12
2022-08-25T10:45:41.155Z,98477.00
2022-08-25T10:48:46.847Z,98473.84
2022-08-25T10:51:58.999Z,98470.84
2022-08-25T10:55:48.476Z,98473.00
2022-08-25T10:59:09.340Z,98477.53
2022-08-25T11:02:19.857Z,98475.34
2022-08-25T11:05:43.068Z,98465.69
2022-08-25T11:08:58.071Z,98460.56
2022-08-25T11:12:16.921Z,98460.94
2022-08-25T11:15:34.253Z,98455.16
2022-08-25T11:18:44.596Z,98451.22
2022-08-25T11:22:01.109Z,98447.66
2022-08-25T11:25:10.366Z,98438.69
2022-08-25T11:28:43.918Z,98444.47
2022-08-25T11:31:53.597Z,98433.03
2022-08-25T11:35:02.481Z,98432.03
2022-08-25T11:38:13.417Z,98421.72
2022-08-25T11:41:27.059Z,98426.00
2022-08-25T11:44:38.281Z,98412.88
2022-08-25T11:47:58.982Z,98421.34
2022-08-25T11:51:04.892Z,98394.38
2022-08-25T11:54:22.689Z,98401.66
2022-08-25T11:57:30.089Z,98408.00
2022-08-25T12:00:36.077Z,98395.09
2022-08-25T12:03:40.921Z,98385.44
2022-08-25T12:07:05.667Z,98381.34
2022-08-25T12:10:15.472Z,98391.19
2022-08-25T12:13:44.089Z,98389.28
2022-08-25T12:16:57.308Z,98387.78
2022-08-25T12:20:01.807Z,98396.31
2022-08-25T12:23:08.253Z,98390.56
2022-08-25T12:26:20.206Z,98393.41
2022-08-25T12:29:33.196Z,98384.34
2022-08-25T12:33:01.566Z,98394.81
2022-08-25T12:36:11.079Z,98390.72
2022-08-25T12:39:24.266Z,98387.78
2022-08-25T12:42:40.552Z,98381.19
2022-08-25T12:45:49.918Z,98380.84
2022-08-25T12:49:02.143Z,98374.03
2022-08-25T12:52:17.315Z,98369.56
2022-08-25T12:55:22.281Z,98365.59
2022-08-25T12:58:58.399Z,98365.81
2022-08-25T13:02:22.929Z,98362.22
2022-08-25T13:05:50.411Z,98359.22
2022-08-25T13:09:08.470Z,98356.63
2022-08-25T13:12:14.829Z,98351.97
2022-08-25T13:15:38.387Z,98350.75
2022-08-25T13:18:42.551Z,98354.97
2022-08-25T13:21:46.683Z,98360.88
2022-08-25T13:24:51.591Z,98367.12
2022-08-25T13:28:00.756Z,98359.34
2022-08-25T13:31:17.624Z,98348.59
2022-08-25T13:34:34.422Z,98353.31
2022-08-25T13:37:38.520Z,98349.66
2022-08-25T13:40:43.179Z,98348.00
2022-08-25T13:43:47.712Z,98342.09
2022-08-25T13:47:10.593Z,98338.16
2022-08-25T13:50:21.266Z,98336.19
2022-08-25T13:53:30.511Z,98328.19
2022-08-25T13:56:41.019Z,98329.25
2022-08-25T13:59:51.041Z,98325.25
2022-08-25T14:02:55.641Z,98324.22
2022-08-25T14:06:28.148Z,98314.56
2022-08-25T14:09:58.216Z,98320.34
2022-08-25T14:13:31.237Z,98310.19
2022-08-25T14:16:43.395Z,98309.84
2022-08-25T14:19:48.355Z,98310.84
2022-08-25T14:22:58.084Z,98307.19
2022-08-25T14:26:02.351Z,98306.94
2022-08-25T14:29:06.348Z,98311.16
2022-08-25T14:32:16.950Z,98300.16
2022-08-25T14:35:20.246Z,98307.75
2022-08-25T14:38:27.151Z,98302.84
2022-08-25T14:41:29.934Z,98299.28
2022-08-25T14:44:33.722Z,98286.00
2022-08-25T14:47:39.432Z,98286.97
2022-08-25T14:50:43.329Z,98294.66
2022-08-25T14:53:46.411Z,98294.66
2022-08-25T14:56:50.316Z,98293.13
2022-08-25T14:59:54.767Z,98288.78
2022-08-25T15:02:58.597Z,98295.94
2022-08-25T15:06:02.811Z,98293.81
2022-08-25T15:09:13.887Z,98291.38
2022-08-25T15:12:26.127Z,98289.81
2022-08-25T15:15:52.152Z,98283.06
2022-08-25T15:18:56.711Z,98290.28
2022-08-25T15:22:01.638Z,98287.72
2022-08-25T15:25:05.679Z,98288.22
2022-08-25T15:28:11.517Z,98275.53
2022-08-25T15:31:22.079Z,98278.78
2022-08-25T15:34:30.314Z,98281.69
2022-08-25T15:37:34.086Z,98282.75
2022-08-25T15:40:40.081Z,98274.72
2022-08-25T15:43:43.845Z,98256.94
2022-08-25T15:46:50.042Z,98268.59
2022-08-25T15:50:04.026Z,98263.87
2022-08-25T15:53:10.314Z,98263.47
2022-08-25T15:56:26.825Z,98259.78
2022-08-25T15:59:31.090Z,98266.84
2022-08-25T16:02:34.773Z,98263.00
2022-08-25T16:05:41.332Z,98267.16
2022-08-25T16:08:52.610Z,98265.47
2022-08-25T16:12:00.553Z,98267.78
2022-08-25T16:15:07.953Z,98262.31
2022-08-25T16:18:12.105Z,98265.75
2022-08-25T16:21:20.002Z,98268.94
2022-08-25T16:24:24.431Z,98261.31
2022-08-25T16:27:27.415Z,98263.44
2022-08-25T16:30:52.482Z,98266.06
2022-08-25T16:33:58.249Z,98267.56
2022-08-25T16:37:02.069Z,98251.56
2022-08-25T16:40:07.796Z,98265.28
2022-08-25T16:43:13.000Z,98252.91
2022-08-25T16:46:18.401Z,98254.34
2022-08-25T16:49:24.344Z,98257.16
2022-08-25T16:52:45.908Z,98249.13
2022-08-25T16:55:50.096Z,98260.41
2022-08-25T16:58:57.086Z,98258.56
2022-08-25T17:02:00.974Z,98253.78
2022-08-25T17:05:06.514Z,98247.91
2022-08-25T17:08:30.500Z,98257.44
2022-08-25T17:11:40.943Z,98266.97
2022-08-25T17:14:47.855Z,98265.44
2022-08-25T17:17:52.876Z,98271.31
2022-08-25T17:21:12.897Z,98265.63
2022-08-25T17:24:29.398Z,98268.22
2022-08-25T17:27:36.542Z,98267.88
2022-08-25T17:30:40.136Z,98264.94
2022-08-25T17:33:43.996Z,98225.09
2022-08-25T17:36:46.649Z,98264.75
2022-08-25T17:39:54.410Z,98261.13
2022-08-25T17:43:09.248Z,98268.56
2022-08-25T17:46:14.034Z,98271.97
2022-08-25T17:49:18.888Z,98278.34
2022-08-25T17:52:25.635Z,98279.84
2022-08-25T17:55:29.257Z,98266.06
2022-08-25T17:58:34.513Z,98279.47
2022-08-25T18:01:40.594Z,98273.44
2022-08-25T18:04:45.911Z,98277.91
2022-08-25T18:07:49.476Z,98279.97
2022-08-25T18:10:53.483Z,98283.22
2022-08-25T18:13:57.016Z,98281.31
2022-08-25T18:17:04.838Z,98289.38
2022-08-25T18:20:10.537Z,98276.13
2022-08-25T18:23:14.100Z,98286.81
2022-08-25T18:26:21.940Z,98289.06
2022-08-25T18:29:29.609Z,98279.88
2022-08-25T18:32:33.730Z,98286.25
2022-08-25T18:35:38.099Z,98290.75
2022-08-25T18:39:01.054Z,98289.34
2022-08-25T18:42:07.061Z,98285.56
2022-08-25T18:45:12.292Z,98287.22
2022-08-25T18:48:17.394Z,98291.72
2022-08-25T18:51:23.465Z,98280.97
2022-08-25T18:54:26.802Z,98295.13
2022-08-25T18:57:31.084Z,98292.16
2022-08-25T19:00:36.762Z,98294.00
2022-08-25T19:03:39.868Z,98283.47
2022-08-25T19:06:44.332Z,98283.31
2022-08-25T19:09:47.572Z,98290.16
2022-08-25T19:12:57.672Z,98287.22
2022-08-25T19:16:10.728Z,98285.09
2022-08-25T19:19:15.563Z,98287.31
2022-08-25T19:22:40.316Z,98287.94
2022-08-25T19:25:42.603Z,98293.47
2022-08-25T19:28:48.705Z,98277.59
2022-08-25T19:31:53.976Z,98283.81
2022-08-25T19:35:00.230Z,98291.84
2022-08-25T19:38:07.436Z,98290.78
2022-08-25T19:41:31.777Z,98295.47
2022-08-25T19:44:36.455Z,98289.22
2022-08-25T19:47:42.454Z,98292.41
2022-08-25T19:50:46.569Z,98297.91
2022-08-25T19:53:54.725Z,98298.88
2022-08-25T19:56:59.948Z,98292.66
2022-08-25T20:00:07.252Z,98298.81
2022-08-25T20:03:15.336Z,98297.06
2022-08-25T20:06:19.246Z,98299.25
2022-08-25T20:09:39.490Z,98293.22
2022-08-25T20:12:45.296Z,98280.59
2022-08-25T20:15:50.306Z,98290.56
2022-08-25T20:18:54.789Z,98292.75
2022-08-25T20:21:59.418Z,98290.62
2022-08-25T20:25:13.410Z,98289.94
2022-08-25T20:28:18.952Z,98293.41
2022-08-25T20:31:23.847Z,98285.31
2022-08-25T20:34:30.422Z,98292.16
2022-08-25T20:37:36.917Z,98278.41
2022-08-25T20:40:41.902Z,98281.47
2022-08-25T20:43:47.048Z,98279.00
2022-08-25T20:46:51.651Z,98276.25
2022-08-25T20:50:04.516Z,98273.06
2022-08-25T20:53:10.260Z,98278.56
2022-08-25T20:56:18.170Z,98268.34
2022-08-25T20:59:23.440Z,98272.09
2022-08-25T21:02:28.935Z,98277.19
2022-08-25T21:05:33.030Z,98279.56
2022-08-25T21:08:40.055Z,98278.13
2022-08-25T21:11:52.279Z,98285.97
2022-08-25T21:14:56.739Z,98288.47
2022-08-25T21:18:01.446Z,98285.31
2022-08-25T21:21:12.653Z,98283.59
2022-08-25T21:24:16.536Z,98280.44
2022-08-25T21:27:20.584Z,98284.91
2022-08-25T21:30:28.689Z,98285.78
2022-08-25T21:33:32.500Z,98271.22
2022-08-25T21:36:35.744Z,98284.34
2022-08-25T21:39:40.324Z,98279.31
2022-08-25T21:42:44.814Z,98274.84
2022-08-25T21:45:50.126Z,98276.88
2022-08-25T21:48:53.815Z,98279.19
2022-08-25T21:52:02.258Z,98268.63
2022-08-25T21:55:06.648Z,98266.34
2022-08-25T21:58:12.389Z,98262.00
2022-08-25T22:01:19.378Z,98254.38
2022-08-25T22:04:22.708Z,98260.59
2022-08-25T22:07:29.524Z,98260.72
2022-08-25T22:10:47.111Z,98267.41
2022-08-25T22:13:53.078Z,98266.13
2022-08-25T22:16:57.552Z,98266.25
2022-08-25T22:20:02.836Z,98263.97
2022-08-25T22:23:06.992Z,98265.25
2022-08-25T22:26:11.595Z,98266.44
2022-08-25T22:29:25.253Z,98265.59
2022-08-25T22:32:29.794Z,98265.59
2022-08-25T22:35:34.033Z,98256.66
2022-08-25T22:38:37.091Z,98276.00
2022-08-25T22:41:41.788Z,98270.78
2022-08-25T22:44:46.221Z,98263.59
2022-08-25T22:47:52.209Z,98267.34
2022-08-25T22:50:55.867Z,98264.88
2022-08-25T22:54:02.146Z,98261.72
2022-08-25T22:57:07.646Z,98251.19
2022-08-25T23:00:14.171Z,98258.69
2022-08-25T23:03:17.740Z,98259.84
2022-08-25T23:06:24.418Z,98252.94
2022-08-25T23:09:28.033Z,98254.06
2022-08-25T23:12:32.643Z,98260.03
2022-08-25T23:15:37.006Z,98255.13
2022-08-25T23:18:43.797Z,98250.94
2022-08-25T23:22:06.208Z,98235.31
2022-08-25T23:25:10.610Z,98248.03
2022-08-25T23:28:14.442Z,98244.00
2022-08-25T23:31:18.197Z,98239.09
2022-08-25T23:34:22.189Z,98239.53
2022-08-25T23:37:28.096Z,98233.59
2022-08-25T23:40:32.697Z,98228.31
2022-08-25T23:43:40.532Z,98231.75
2022-08-25T23:46:44.663Z,98229.03
2022-08-25T23:49:48.774Z,98230.31
2022-08-25T23:52:52.937Z,98230.47
2022-08-25T23:55:59.338Z,98227.88
2022-08-25T23:59:04.265Z,98227.28
